This is the latest recevied weather packets stored in our database for station/object K1FSY-9. If no packets are shown the sender has not sent any weather packets the latest 10 day(s).
| Time | Temp. | Humidity | Pressure | Rain* | Wind** | Luminosity | Snow |
|---|---|---|---|---|---|---|---|
| 1777460892 | 7.78° C | 76% | 1014.9 hPa | 0 mm | - | - | - |
| 1777459087 | 7.22° C | 80% | 1015.5 hPa | 0 mm | - | - | - |
| 1777457284 | 6.67° C | 80% | 1015.5 hPa | 0 mm | - | - | - |
| 1777453684 | 6.11° C | 78% | 1015.2 hPa | 0 mm | - | - | - |
| 1777451877 | 6.11° C | 77% | 1015.2 hPa | 0 mm | - | - | - |
| 1777450072 | 6.67° C | 75% | 1014.9 hPa | 0 mm | - | - | - |
| 1777448272 | 7.78° C | 72% | 1014.9 hPa | 0 mm | - | - | - |
| 1777446467 | 8.33° C | 71% | 1015.5 hPa | 0 mm | - | - | - |
| 1777444663 | 8.89° C | 69% | 1015.9 hPa | 0 mm | - | - | - |
| 1777442860 | 9.44° C | 67% | 1016.2 hPa | 0 mm | - | - | - |
| 1777441060 | 9.44° C | 67% | 1016.5 hPa | 0 mm | - | - | - |
| 1777439257 | 10° C | 67% | 1016.5 hPa | 0 mm | - | - | - |
| 1777435654 | 10° C | 65% | 1016.5 hPa | 0 mm | - | - | - |
| 1777433853 | 10.56° C | 65% | 1016.2 hPa | 0 mm | - | - | - |
| 1777428445 | 11.67° C | 59% | 1016.2 hPa | 0 mm | - | - | - |
| 1777421232 | 15° C | 51% | 1014.5 hPa | 0 mm | - | - | - |
| 1777419429 | 15.56° C | 49% | 1014.2 hPa | 0 mm | - | - | - |
| 1777417630 | 16.11° C | 48% | 1014.5 hPa | 0 mm | - | - | - |
| 1777415825 | 16.67° C | 45% | 1014.5 hPa | 0 mm | - | - | - |
| 1777414024 | 17.78° C | 43% | 1014.5 hPa | 0 mm | - | - | - |
| 1777412218 | 18.89° C | 41% | 1014.2 hPa | 0 mm | - | - | - |
| 1777410415 | 19.44° C | 40% | 1014.5 hPa | 0 mm | - | - | - |
| 1777408614 | 20° C | 39% | 1014.2 hPa | 0 mm | - | - | - |
| 1777406812 | 21.11° C | 38% | 1014.2 hPa | 0 mm | - | - | - |
| 1777405010 | 22.22° C | 36% | 1014.5 hPa | 0 mm | - | - | - |
* Rain latest 24 hours (hover to see other rain measurements)
** Current wind speed in m/s (hover to see current wind gust speed)